sensor_id;sensor_type;location;lat;lon;timestamp;temperature;humidity
16980;DHT22;42288;52.182;21.156;2023-09-18T00:01:38;18.30;99.90
16980;DHT22;42288;52.182;21.156;2023-09-18T00:04:05;18.20;99.90
16980;DHT22;42288;52.182;21.156;2023-09-18T00:06:30;18.10;99.90
16980;DHT22;42288;52.182;21.156;2023-09-18T00:08:56;18.20;99.90
16980;DHT22;42288;52.182;21.156;2023-09-18T00:11:22;18.30;99.90
16980;DHT22;42288;52.182;21.156;2023-09-18T00:13:47;18.30;99.90
16980;DHT22;42288;52.182;21.156;2023-09-18T00:16:13;18.10;99.90
16980;DHT22;42288;52.182;21.156;2023-09-18T00:18:39;18.00;99.90
16980;DHT22;42288;52.182;21.156;2023-09-18T00:21:04;18.00;99.90
16980;DHT22;42288;52.182;21.156;2023-09-18T00:23:32;17.90;99.90
16980;DHT22;42288;52.182;21.156;2023-09-18T00:26:00;17.80;99.90
16980;DHT22;42288;52.182;21.156;2023-09-18T00:28:26;17.70;99.90
16980;DHT22;42288;52.182;21.156;2023-09-18T00:30:51;17.50;99.90
16980;DHT22;42288;52.182;21.156;2023-09-18T00:33:17;17.50;99.90
16980;DHT22;42288;52.182;21.156;2023-09-18T00:35:49;17.40;99.90
16980;DHT22;42288;52.182;21.156;2023-09-18T00:38:15;17.50;99.90
16980;DHT22;42288;52.182;21.156;2023-09-18T00:40:41;17.40;99.90
16980;DHT22;42288;52.182;21.156;2023-09-18T00:43:07;17.40;99.90
16980;DHT22;42288;52.182;21.156;2023-09-18T00:45:34;17.30;99.90
16980;DHT22;42288;52.182;21.156;2023-09-18T00:48:01;17.20;99.90
16980;DHT22;42288;52.182;21.156;2023-09-18T00:50:26;17.20;99.90
16980;DHT22;42288;52.182;21.156;2023-09-18T00:52:52;17.20;99.90
16980;DHT22;42288;52.182;21.156;2023-09-18T00:55:18;17.10;99.90
16980;DHT22;42288;52.182;21.156;2023-09-18T00:57:45;17.00;99.90
16980;DHT22;42288;52.182;21.156;2023-09-18T01:00:12;17.10;99.90
16980;DHT22;42288;52.182;21.156;2023-09-18T01:02:42;17.10;99.90
16980;DHT22;42288;52.182;21.156;2023-09-18T01:05:08;17.00;99.90
16980;DHT22;42288;52.182;21.156;2023-09-18T01:07:34;17.00;99.90
16980;DHT22;42288;52.182;21.156;2023-09-18T01:09:59;17.00;99.90
16980;DHT22;42288;52.182;21.156;2023-09-18T01:12:35;17.00;99.90
16980;DHT22;42288;52.182;21.156;2023-09-18T01:15:36;16.90;99.90
16980;DHT22;42288;52.182;21.156;2023-09-18T01:18:07;16.80;99.90
16980;DHT22;42288;52.182;21.156;2023-09-18T01:20:33;16.80;99.90
16980;DHT22;42288;52.182;21.156;2023-09-18T01:22:59;16.80;99.90
16980;DHT22;42288;52.182;21.156;2023-09-18T01:25:25;16.70;99.90
16980;DHT22;42288;52.182;21.156;2023-09-18T01:27:50;16.70;99.90
16980;DHT22;42288;52.182;21.156;2023-09-18T01:30:17;16.70;99.90
16980;DHT22;42288;52.182;21.156;2023-09-18T01:32:44;16.70;99.90
16980;DHT22;42288;52.182;21.156;2023-09-18T01:35:11;16.70;99.90
16980;DHT22;42288;52.182;21.156;2023-09-18T01:37:37;16.70;99.90
16980;DHT22;42288;52.182;21.156;2023-09-18T01:40:06;16.70;99.90
16980;DHT22;42288;52.182;21.156;2023-09-18T01:42:32;16.60;99.90
16980;DHT22;42288;52.182;21.156;2023-09-18T01:44:59;16.60;99.90
16980;DHT22;42288;52.182;21.156;2023-09-18T01:47:24;16.50;99.90
16980;DHT22;42288;52.182;21.156;2023-09-18T01:49:52;16.50;99.90
16980;DHT22;42288;52.182;21.156;2023-09-18T01:52:17;16.60;99.90
16980;DHT22;42288;52.182;21.156;2023-09-18T01:54:43;16.60;99.90
16980;DHT22;42288;52.182;21.156;2023-09-18T01:57:09;16.50;99.90
16980;DHT22;42288;52.182;21.156;2023-09-18T01:59:34;16.50;99.90
16980;DHT22;42288;52.182;21.156;2023-09-18T02:02:00;16.50;99.90
16980;DHT22;42288;52.182;21.156;2023-09-18T02:04:29;16.40;99.90
16980;DHT22;42288;52.182;21.156;2023-09-18T02:06:55;16.40;99.90
16980;DHT22;42288;52.182;21.156;2023-09-18T02:09:22;16.30;99.90
16980;DHT22;42288;52.182;21.156;2023-09-18T02:11:48;16.30;99.90
16980;DHT22;42288;52.182;21.156;2023-09-18T02:14:14;16.30;99.90
16980;DHT22;42288;52.182;21.156;2023-09-18T02:16:42;16.40;99.90
16980;DHT22;42288;52.182;21.156;2023-09-18T02:19:09;16.30;99.90
16980;DHT22;42288;52.182;21.156;2023-09-18T02:21:35;16.40;99.90
16980;DHT22;42288;52.182;21.156;2023-09-18T02:24:01;16.30;99.90
16980;DHT22;42288;52.182;21.156;2023-09-18T02:26:27;16.20;99.90
16980;DHT22;42288;52.182;21.156;2023-09-18T02:28:53;16.20;99.90
16980;DHT22;42288;52.182;21.156;2023-09-18T02:31:20;16.20;99.90
16980;DHT22;42288;52.182;21.156;2023-09-18T02:33:45;16.20;99.90
16980;DHT22;42288;52.182;21.156;2023-09-18T02:36:12;16.20;99.90
16980;DHT22;42288;52.182;21.156;2023-09-18T02:38:38;16.20;99.90
16980;DHT22;42288;52.182;21.156;2023-09-18T02:41:03;16.30;99.90
16980;DHT22;42288;52.182;21.156;2023-09-18T02:43:29;16.40;99.90
16980;DHT22;42288;52.182;21.156;2023-09-18T02:45:55;16.30;99.90
16980;DHT22;42288;52.182;21.156;2023-09-18T02:48:20;16.40;99.90
16980;DHT22;42288;52.182;21.156;2023-09-18T02:50:46;16.50;99.90
16980;DHT22;42288;52.182;21.156;2023-09-18T02:53:21;16.60;99.90
16980;DHT22;42288;52.182;21.156;2023-09-18T02:55:51;16.70;99.90
16980;DHT22;42288;52.182;21.156;2023-09-18T02:58:18;16.70;99.90
16980;DHT22;42288;52.182;21.156;2023-09-18T03:00:46;16.80;99.90
16980;DHT22;42288;52.182;21.156;2023-09-18T03:03:13;16.80;99.90
16980;DHT22;42288;52.182;21.156;2023-09-18T03:05:39;16.90;99.90
16980;DHT22;42288;52.182;21.156;2023-09-18T03:08:06;16.90;99.90
16980;DHT22;42288;52.182;21.156;2023-09-18T03:10:39;16.90;99.90
16980;DHT22;42288;52.182;21.156;2023-09-18T03:13:07;17.00;99.90
16980;DHT22;42288;52.182;21.156;2023-09-18T03:15:33;17.00;99.90
16980;DHT22;42288;52.182;21.156;2023-09-18T03:17:59;17.00;99.90
16980;DHT22;42288;52.182;21.156;2023-09-18T03:20:26;17.00;99.90
16980;DHT22;42288;52.182;21.156;2023-09-18T03:22:55;17.00;99.90
16980;DHT22;42288;52.182;21.156;2023-09-18T03:25:21;17.10;99.90
16980;DHT22;42288;52.182;21.156;2023-09-18T03:27:52;17.20;99.90
16980;DHT22;42288;52.182;21.156;2023-09-18T03:30:21;17.20;99.90
16980;DHT22;42288;52.182;21.156;2023-09-18T03:32:48;17.20;99.90
16980;DHT22;42288;52.182;21.156;2023-09-18T03:35:14;17.30;99.90
16980;DHT22;42288;52.182;21.156;2023-09-18T03:37:51;17.30;99.90
16980;DHT22;42288;52.182;21.156;2023-09-18T03:40:18;17.30;99.90
16980;DHT22;42288;52.182;21.156;2023-09-18T03:42:44;17.40;99.90
16980;DHT22;42288;52.182;21.156;2023-09-18T03:45:10;17.40;99.90
16980;DHT22;42288;52.182;21.156;2023-09-18T03:47:37;17.50;99.90
16980;DHT22;42288;52.182;21.156;2023-09-18T03:50:07;17.40;99.90
16980;DHT22;42288;52.182;21.156;2023-09-18T03:52:33;17.50;99.90
16980;DHT22;42288;52.182;21.156;2023-09-18T03:54:59;17.50;99.90
16980;DHT22;42288;52.182;21.156;2023-09-18T03:57:25;17.50;99.90
16980;DHT22;42288;52.182;21.156;2023-09-18T03:59:50;17.50;99.90
16980;DHT22;42288;52.182;21.156;2023-09-18T04:02:16;17.50;99.90
16980;DHT22;42288;52.182;21.156;2023-09-18T04:04:42;17.50;99.90
16980;DHT22;42288;52.182;21.156;2023-09-18T04:07:08;17.50;99.90
16980;DHT22;42288;52.182;21.156;2023-09-18T04:09:34;17.50;99.90
16980;DHT22;42288;52.182;21.156;2023-09-18T04:12:03;17.60;99.90
16980;DHT22;42288;52.182;21.156;2023-09-18T04:14:32;17.60;99.90
16980;DHT22;42288;52.182;21.156;2023-09-18T04:16:58;17.60;99.90
16980;DHT22;42288;52.182;21.156;2023-09-18T04:19:23;17.60;99.90
16980;DHT22;42288;52.182;21.156;2023-09-18T04:21:49;17.60;99.90
16980;DHT22;42288;52.182;21.156;2023-09-18T04:24:14;17.60;99.90
16980;DHT22;42288;52.182;21.156;2023-09-18T04:26:40;17.60;99.90
16980;DHT22;42288;52.182;21.156;2023-09-18T04:29:06;17.60;99.90
16980;DHT22;42288;52.182;21.156;2023-09-18T04:31:32;17.60;99.90
16980;DHT22;42288;52.182;21.156;2023-09-18T04:33:57;17.60;99.90
16980;DHT22;42288;52.182;21.156;2023-09-18T04:36:23;17.60;99.90
16980;DHT22;42288;52.182;21.156;2023-09-18T04:38:50;17.70;99.90
16980;DHT22;42288;52.182;21.156;2023-09-18T04:41:16;17.70;99.90
16980;DHT22;42288;52.182;21.156;2023-09-18T04:43:41;17.70;99.90
16980;DHT22;42288;52.182;21.156;2023-09-18T04:46:08;17.70;99.90
16980;DHT22;42288;52.182;21.156;2023-09-18T04:48:34;17.80;99.90
16980;DHT22;42288;52.182;21.156;2023-09-18T04:51:03;17.80;99.90
16980;DHT22;42288;52.182;21.156;2023-09-18T04:53:30;17.80;99.90
16980;DHT22;42288;52.182;21.156;2023-09-18T04:55:56;17.70;99.90
16980;DHT22;42288;52.182;21.156;2023-09-18T04:58:21;17.70;99.90
16980;DHT22;42288;52.182;21.156;2023-09-18T05:00:54;17.70;99.90
16980;DHT22;42288;52.182;21.156;2023-09-18T05:03:20;17.80;99.90
16980;DHT22;42288;52.182;21.156;2023-09-18T05:05:46;17.80;99.90
16980;DHT22;42288;52.182;21.156;2023-09-18T05:08:11;17.80;99.90
16980;DHT22;42288;52.182;21.156;2023-09-18T05:10:37;17.90;99.90
16980;DHT22;42288;52.182;21.156;2023-09-18T05:13:03;17.90;99.90
16980;DHT22;42288;52.182;21.156;2023-09-18T05:15:29;17.90;99.90
16980;DHT22;42288;52.182;21.156;2023-09-18T05:17:56;18.00;99.90
16980;DHT22;42288;52.182;21.156;2023-09-18T05:20:27;18.00;99.90
16980;DHT22;42288;52.182;21.156;2023-09-18T05:22:54;18.10;99.90
16980;DHT22;42288;52.182;21.156;2023-09-18T05:25:25;18.10;99.90
16980;DHT22;42288;52.182;21.156;2023-09-18T05:27:52;18.20;99.90
16980;DHT22;42288;52.182;21.156;2023-09-18T05:30:34;18.20;99.90
16980;DHT22;42288;52.182;21.156;2023-09-18T05:33:01;18.20;99.90
16980;DHT22;42288;52.182;21.156;2023-09-18T05:35:34;18.20;99.90
16980;DHT22;42288;52.182;21.156;2023-09-18T05:37:59;18.20;99.90
16980;DHT22;42288;52.182;21.156;2023-09-18T05:40:25;18.20;99.90
16980;DHT22;42288;52.182;21.156;2023-09-18T05:42:53;18.20;99.90
16980;DHT22;42288;52.182;21.156;2023-09-18T05:45:20;18.30;99.90
16980;DHT22;42288;52.182;21.156;2023-09-18T05:47:45;18.30;99.90
16980;DHT22;42288;52.182;21.156;2023-09-18T05:50:13;18.40;99.90
16980;DHT22;42288;52.182;21.156;2023-09-18T05:52:40;18.40;99.90
16980;DHT22;42288;52.182;21.156;2023-09-18T05:55:06;18.40;99.90
16980;DHT22;42288;52.182;21.156;2023-09-18T05:57:32;18.40;99.90
16980;DHT22;42288;52.182;21.156;2023-09-18T05:59:58;18.40;99.90
16980;DHT22;42288;52.182;21.156;2023-09-18T06:02:24;18.50;99.90
16980;DHT22;42288;52.182;21.156;2023-09-18T06:04:59;18.60;99.90
16980;DHT22;42288;52.182;21.156;2023-09-18T06:07:28;18.60;99.90
16980;DHT22;42288;52.182;21.156;2023-09-18T06:09:54;18.60;99.90
16980;DHT22;42288;52.182;21.156;2023-09-18T06:12:20;18.60;99.90
16980;DHT22;42288;52.182;21.156;2023-09-18T06:14:46;18.80;99.90
16980;DHT22;42288;52.182;21.156;2023-09-18T06:17:14;18.80;99.90
16980;DHT22;42288;52.182;21.156;2023-09-18T06:19:40;18.90;99.90
16980;DHT22;42288;52.182;21.156;2023-09-18T06:22:06;19.00;99.90
16980;DHT22;42288;52.182;21.156;2023-09-18T06:24:34;19.00;99.90
16980;DHT22;42288;52.182;21.156;2023-09-18T06:26:59;19.00;99.90
16980;DHT22;42288;52.182;21.156;2023-09-18T06:29:25;19.00;99.90
16980;DHT22;42288;52.182;21.156;2023-09-18T06:31:50;19.10;99.90
16980;DHT22;42288;52.182;21.156;2023-09-18T06:34:16;19.20;99.90
16980;DHT22;42288;52.182;21.156;2023-09-18T06:36:42;19.30;99.90
16980;DHT22;42288;52.182;21.156;2023-09-18T06:39:08;19.40;99.90
16980;DHT22;42288;52.182;21.156;2023-09-18T06:41:33;19.50;99.90
16980;DHT22;42288;52.182;21.156;2023-09-18T06:43:59;19.60;99.90
16980;DHT22;42288;52.182;21.156;2023-09-18T06:46:28;19.70;99.90
16980;DHT22;42288;52.182;21.156;2023-09-18T06:48:54;19.80;99.90
16980;DHT22;42288;52.182;21.156;2023-09-18T06:51:21;19.90;99.90
16980;DHT22;42288;52.182;21.156;2023-09-18T06:53:47;20.00;99.90
16980;DHT22;42288;52.182;21.156;2023-09-18T06:56:13;20.10;99.90
16980;DHT22;42288;52.182;21.156;2023-09-18T06:58:38;20.10;99.90
16980;DHT22;42288;52.182;21.156;2023-09-18T07:01:04;20.10;99.90
16980;DHT22;42288;52.182;21.156;2023-09-18T07:03:32;20.20;99.90
16980;DHT22;42288;52.182;21.156;2023-09-18T07:06:00;20.20;99.90
16980;DHT22;42288;52.182;21.156;2023-09-18T07:08:25;20.40;99.90
16980;DHT22;42288;52.182;21.156;2023-09-18T07:10:51;20.50;99.90
16980;DHT22;42288;52.182;21.156;2023-09-18T07:13:17;20.60;99.90
16980;DHT22;42288;52.182;21.156;2023-09-18T07:15:42;20.70;99.90
16980;DHT22;42288;52.182;21.156;2023-09-18T07:18:09;20.80;99.90
16980;DHT22;42288;52.182;21.156;2023-09-18T07:20:45;20.90;99.90
16980;DHT22;42288;52.182;21.156;2023-09-18T07:23:11;21.00;99.90
16980;DHT22;42288;52.182;21.156;2023-09-18T07:25:36;21.20;99.90
16980;DHT22;42288;52.182;21.156;2023-09-18T07:28:06;21.20;99.90
16980;DHT22;42288;52.182;21.156;2023-09-18T07:30:32;21.30;99.90
16980;DHT22;42288;52.182;21.156;2023-09-18T07:32:58;21.40;99.90
16980;DHT22;42288;52.182;21.156;2023-09-18T07:35:24;21.50;99.90
16980;DHT22;42288;52.182;21.156;2023-09-18T07:37:50;21.60;99.90
16980;DHT22;42288;52.182;21.156;2023-09-18T07:40:16;21.70;99.90
16980;DHT22;42288;52.182;21.156;2023-09-18T07:42:42;21.90;99.90
16980;DHT22;42288;52.182;21.156;2023-09-18T07:45:11;21.90;99.90
16980;DHT22;42288;52.182;21.156;2023-09-18T07:47:37;22.10;99.90
16980;DHT22;42288;52.182;21.156;2023-09-18T07:50:03;22.10;99.90
16980;DHT22;42288;52.182;21.156;2023-09-18T07:52:29;22.30;99.90
16980;DHT22;42288;52.182;21.156;2023-09-18T07:54:55;22.40;99.90
16980;DHT22;42288;52.182;21.156;2023-09-18T07:57:21;22.50;99.90
16980;DHT22;42288;52.182;21.156;2023-09-18T07:59:48;22.60;99.90
16980;DHT22;42288;52.182;21.156;2023-09-18T08:02:14;22.60;99.90
16980;DHT22;42288;52.182;21.156;2023-09-18T08:04:40;22.70;99.90
16980;DHT22;42288;52.182;21.156;2023-09-18T08:07:06;22.80;99.90
16980;DHT22;42288;52.182;21.156;2023-09-18T08:09:32;22.80;99.90
16980;DHT22;42288;52.182;21.156;2023-09-18T08:12:02;22.90;99.90
16980;DHT22;42288;52.182;21.156;2023-09-18T08:14:27;22.90;99.90
16980;DHT22;42288;52.182;21.156;2023-09-18T08:17:00;23.00;99.90
16980;DHT22;42288;52.182;21.156;2023-09-18T08:19:26;23.10;99.90
16980;DHT22;42288;52.182;21.156;2023-09-18T08:21:55;23.20;99.90
16980;DHT22;42288;52.182;21.156;2023-09-18T08:24:22;23.20;99.90
16980;DHT22;42288;52.182;21.156;2023-09-18T08:26:48;23.40;99.90
16980;DHT22;42288;52.182;21.156;2023-09-18T08:29:14;23.30;99.90
16980;DHT22;42288;52.182;21.156;2023-09-18T08:31:39;23.40;99.90
16980;DHT22;42288;52.182;21.156;2023-09-18T08:34:05;23.50;99.90
16980;DHT22;42288;52.182;21.156;2023-09-18T08:36:30;23.50;99.90
16980;DHT22;42288;52.182;21.156;2023-09-18T08:38:57;23.50;99.90
16980;DHT22;42288;52.182;21.156;2023-09-18T08:41:23;23.70;99.90
16980;DHT22;42288;52.182;21.156;2023-09-18T08:43:56;23.70;99.90
16980;DHT22;42288;52.182;21.156;2023-09-18T08:46:24;23.80;99.90
16980;DHT22;42288;52.182;21.156;2023-09-18T08:48:50;23.90;99.90
16980;DHT22;42288;52.182;21.156;2023-09-18T08:51:18;24.00;99.90
16980;DHT22;42288;52.182;21.156;2023-09-18T08:53:44;24.10;99.90
16980;DHT22;42288;52.182;21.156;2023-09-18T08:56:12;24.20;99.90
16980;DHT22;42288;52.182;21.156;2023-09-18T08:58:39;24.20;99.90
16980;DHT22;42288;52.182;21.156;2023-09-18T09:01:08;24.40;99.90
16980;DHT22;42288;52.182;21.156;2023-09-18T09:03:39;24.50;99.90
16980;DHT22;42288;52.182;21.156;2023-09-18T09:06:06;24.60;99.90
16980;DHT22;42288;52.182;21.156;2023-09-18T09:08:32;24.70;99.90
16980;DHT22;42288;52.182;21.156;2023-09-18T09:10:58;24.60;99.90
16980;DHT22;42288;52.182;21.156;2023-09-18T09:13:24;24.80;99.90
16980;DHT22;42288;52.182;21.156;2023-09-18T09:15:52;24.80;99.90
16980;DHT22;42288;52.182;21.156;2023-09-18T09:18:19;25.00;99.90
16980;DHT22;42288;52.182;21.156;2023-09-18T09:21:01;25.20;99.90
16980;DHT22;42288;52.182;21.156;2023-09-18T09:23:28;25.20;99.90
16980;DHT22;42288;52.182;21.156;2023-09-18T09:26:12;25.30;99.90
16980;DHT22;42288;52.182;21.156;2023-09-18T09:28:38;25.40;99.90
16980;DHT22;42288;52.182;21.156;2023-09-18T09:31:04;25.40;99.90
16980;DHT22;42288;52.182;21.156;2023-09-18T09:33:30;25.40;99.90
16980;DHT22;42288;52.182;21.156;2023-09-18T09:35:56;25.40;99.90
16980;DHT22;42288;52.182;21.156;2023-09-18T09:38:28;25.50;99.90
16980;DHT22;42288;52.182;21.156;2023-09-18T09:40:57;25.50;99.90
16980;DHT22;42288;52.182;21.156;2023-09-18T09:43:25;25.60;99.90
16980;DHT22;42288;52.182;21.156;2023-09-18T09:46:05;25.70;99.90
16980;DHT22;42288;52.182;21.156;2023-09-18T09:48:31;25.80;99.90
16980;DHT22;42288;52.182;21.156;2023-09-18T09:50:59;25.90;99.90
16980;DHT22;42288;52.182;21.156;2023-09-18T09:53:46;25.90;99.90
16980;DHT22;42288;52.182;21.156;2023-09-18T09:56:16;26.00;99.90
16980;DHT22;42288;52.182;21.156;2023-09-18T09:59:04;26.10;99.90
16980;DHT22;42288;52.182;21.156;2023-09-18T10:01:33;26.30;99.90
16980;DHT22;42288;52.182;21.156;2023-09-18T10:04:03;26.40;99.90
16980;DHT22;42288;52.182;21.156;2023-09-18T10:06:31;26.70;99.90
16980;DHT22;42288;52.182;21.156;2023-09-18T10:08:58;26.80;99.90
16980;DHT22;42288;52.182;21.156;2023-09-18T10:11:26;27.20;99.90
16980;DHT22;42288;52.182;21.156;2023-09-18T10:13:59;27.60;99.90
16980;DHT22;42288;52.182;21.156;2023-09-18T10:16:28;27.90;99.90
16980;DHT22;42288;52.182;21.156;2023-09-18T10:19:17;28.10;99.90
16980;DHT22;42288;52.182;21.156;2023-09-18T10:24:41;28.90;99.90
16980;DHT22;42288;52.182;21.156;2023-09-18T10:27:12;29.60;99.90
16980;DHT22;42288;52.182;21.156;2023-09-18T10:29:41;29.90;97.80
16980;DHT22;42288;52.182;21.156;2023-09-18T10:32:07;30.30;96.20
16980;DHT22;42288;52.182;21.156;2023-09-18T10:34:34;30.90;95.90
16980;DHT22;42288;52.182;21.156;2023-09-18T10:37:01;31.20;94.50
16980;DHT22;42288;52.182;21.156;2023-09-18T10:39:36;31.50;93.40
16980;DHT22;42288;52.182;21.156;2023-09-18T10:42:03;31.50;92.40
16980;DHT22;42288;52.182;21.156;2023-09-18T10:44:29;31.60;92.30
16980;DHT22;42288;52.182;21.156;2023-09-18T10:46:57;31.60;91.50
16980;DHT22;42288;52.182;21.156;2023-09-18T10:49:24;31.70;91.40
16980;DHT22;42288;52.182;21.156;2023-09-18T10:51:54;31.50;91.20
16980;DHT22;42288;52.182;21.156;2023-09-18T10:54:23;31.20;91.50
16980;DHT22;42288;52.182;21.156;2023-09-18T10:56:49;30.90;90.90
16980;DHT22;42288;52.182;21.156;2023-09-18T10:59:15;30.50;90.90
16980;DHT22;42288;52.182;21.156;2023-09-18T11:01:42;30.20;90.90
16980;DHT22;42288;52.182;21.156;2023-09-18T11:04:08;29.90;92.00
16980;DHT22;42288;52.182;21.156;2023-09-18T11:09:30;29.50;92.50
16980;DHT22;42288;52.182;21.156;2023-09-18T11:14:47;29.20;92.50
16980;DHT22;42288;52.182;21.156;2023-09-18T11:17:37;29.00;93.40
16980;DHT22;42288;52.182;21.156;2023-09-18T11:20:07;28.80;93.00
16980;DHT22;42288;52.182;21.156;2023-09-18T11:22:58;28.70;93.60
16980;DHT22;42288;52.182;21.156;2023-09-18T11:28:01;28.40;94.60
16980;DHT22;42288;52.182;21.156;2023-09-18T11:30:28;28.20;94.30
16980;DHT22;42288;52.182;21.156;2023-09-18T11:32:54;28.20;95.10
16980;DHT22;42288;52.182;21.156;2023-09-18T11:35:21;28.10;95.50
16980;DHT22;42288;52.182;21.156;2023-09-18T11:37:47;28.10;94.90
16980;DHT22;42288;52.182;21.156;2023-09-18T11:40:31;28.00;95.30
16980;DHT22;42288;52.182;21.156;2023-09-18T11:43:23;27.90;95.40
16980;DHT22;42288;52.182;21.156;2023-09-18T11:45:53;27.70;95.70
16980;DHT22;42288;52.182;21.156;2023-09-18T11:48:20;27.60;96.30
16980;DHT22;42288;52.182;21.156;2023-09-18T11:50:47;27.60;95.70
16980;DHT22;42288;52.182;21.156;2023-09-18T11:53:15;27.60;96.20
16980;DHT22;42288;52.182;21.156;2023-09-18T11:55:41;27.50;96.30
16980;DHT22;42288;52.182;21.156;2023-09-18T11:58:07;27.40;96.90
16980;DHT22;42288;52.182;21.156;2023-09-18T12:00:35;27.50;97.30
16980;DHT22;42288;52.182;21.156;2023-09-18T12:03:22;27.50;96.30
16980;DHT22;42288;52.182;21.156;2023-09-18T12:06:02;27.40;96.00
16980;DHT22;42288;52.182;21.156;2023-09-18T12:08:32;27.40;96.60
16980;DHT22;42288;52.182;21.156;2023-09-18T12:10:58;27.30;96.50
16980;DHT22;42288;52.182;21.156;2023-09-18T12:13:27;27.40;96.10
16980;DHT22;42288;52.182;21.156;2023-09-18T12:15:57;27.30;95.90
16980;DHT22;42288;52.182;21.156;2023-09-18T12:18:24;27.20;96.30
16980;DHT22;42288;52.182;21.156;2023-09-18T12:20:51;27.20;96.20
16980;DHT22;42288;52.182;21.156;2023-09-18T12:23:17;27.20;96.60
16980;DHT22;42288;52.182;21.156;2023-09-18T12:25:48;27.10;95.20
16980;DHT22;42288;52.182;21.156;2023-09-18T12:28:15;27.30;95.60
16980;DHT22;42288;52.182;21.156;2023-09-18T12:30:42;27.30;94.90
16980;DHT22;42288;52.182;21.156;2023-09-18T12:33:08;27.20;95.10
16980;DHT22;42288;52.182;21.156;2023-09-18T12:35:33;27.20;94.90
16980;DHT22;42288;52.182;21.156;2023-09-18T12:37:59;27.20;94.70
16980;DHT22;42288;52.182;21.156;2023-09-18T12:40:31;27.30;95.40
16980;DHT22;42288;52.182;21.156;2023-09-18T12:42:59;27.30;95.00
16980;DHT22;42288;52.182;21.156;2023-09-18T12:45:27;27.30;94.90
16980;DHT22;42288;52.182;21.156;2023-09-18T12:47:55;27.30;95.00
16980;DHT22;42288;52.182;21.156;2023-09-18T12:50:21;27.30;94.80
16980;DHT22;42288;52.182;21.156;2023-09-18T12:52:47;27.30;94.20
16980;DHT22;42288;52.182;21.156;2023-09-18T12:55:26;27.30;93.80
16980;DHT22;42288;52.182;21.156;2023-09-18T12:57:53;27.30;94.60
16980;DHT22;42288;52.182;21.156;2023-09-18T13:00:20;27.10;93.90
16980;DHT22;42288;52.182;21.156;2023-09-18T13:02:52;27.10;93.80
16980;DHT22;42288;52.182;21.156;2023-09-18T13:05:21;27.10;94.10
16980;DHT22;42288;52.182;21.156;2023-09-18T13:07:51;27.10;93.80
16980;DHT22;42288;52.182;21.156;2023-09-18T13:10:17;27.20;94.00
16980;DHT22;42288;52.182;21.156;2023-09-18T13:12:47;27.20;94.10
16980;DHT22;42288;52.182;21.156;2023-09-18T13:15:14;27.20;93.60
16980;DHT22;42288;52.182;21.156;2023-09-18T13:17:49;27.20;93.10
16980;DHT22;42288;52.182;21.156;2023-09-18T13:20:22;27.20;93.50
16980;DHT22;42288;52.182;21.156;2023-09-18T13:22:54;27.20;93.80
16980;DHT22;42288;52.182;21.156;2023-09-18T13:25:58;27.20;93.20
16980;DHT22;42288;52.182;21.156;2023-09-18T13:28:16;27.20;93.30
16980;DHT22;42288;52.182;21.156;2023-09-18T13:30:46;27.30;93.60
16980;DHT22;42288;52.182;21.156;2023-09-18T13:33:13;27.20;92.40
16980;DHT22;42288;52.182;21.156;2023-09-18T13:35:41;27.20;92.80
16980;DHT22;42288;52.182;21.156;2023-09-18T13:38:07;27.10;93.10
16980;DHT22;42288;52.182;21.156;2023-09-18T13:40:35;27.10;92.90
16980;DHT22;42288;52.182;21.156;2023-09-18T13:43:05;27.20;93.00
16980;DHT22;42288;52.182;21.156;2023-09-18T13:45:32;27.20;92.20
16980;DHT22;42288;52.182;21.156;2023-09-18T13:47:58;27.10;92.60
16980;DHT22;42288;52.182;21.156;2023-09-18T13:50:24;27.20;92.90
16980;DHT22;42288;52.182;21.156;2023-09-18T13:52:50;27.20;93.20
16980;DHT22;42288;52.182;21.156;2023-09-18T13:55:16;27.20;92.70
16980;DHT22;42288;52.182;21.156;2023-09-18T13:57:42;27.20;93.00
16980;DHT22;42288;52.182;21.156;2023-09-18T14:00:09;27.10;92.80
16980;DHT22;42288;52.182;21.156;2023-09-18T14:02:38;27.10;92.90
16980;DHT22;42288;52.182;21.156;2023-09-18T14:05:04;27.00;92.30
16980;DHT22;42288;52.182;21.156;2023-09-18T14:07:31;27.10;91.90
16980;DHT22;42288;52.182;21.156;2023-09-18T14:09:56;27.10;92.70
16980;DHT22;42288;52.182;21.156;2023-09-18T14:12:22;27.00;92.70
16980;DHT22;42288;52.182;21.156;2023-09-18T14:14:48;27.00;92.80
16980;DHT22;42288;52.182;21.156;2023-09-18T14:17:13;27.10;93.00
16980;DHT22;42288;52.182;21.156;2023-09-18T14:19:42;27.10;92.40
16980;DHT22;42288;52.182;21.156;2023-09-18T14:22:08;27.00;92.30
16980;DHT22;42288;52.182;21.156;2023-09-18T14:24:34;27.10;92.20
16980;DHT22;42288;52.182;21.156;2023-09-18T14:27:00;27.10;92.50
16980;DHT22;42288;52.182;21.156;2023-09-18T14:29:26;26.90;91.90
16980;DHT22;42288;52.182;21.156;2023-09-18T14:31:52;26.90;92.30
16980;DHT22;42288;52.182;21.156;2023-09-18T14:34:18;27.00;91.90
16980;DHT22;42288;52.182;21.156;2023-09-18T14:36:43;27.00;91.70
16980;DHT22;42288;52.182;21.156;2023-09-18T14:39:10;27.00;91.90
16980;DHT22;42288;52.182;21.156;2023-09-18T14:44:20;26.90;92.20
16980;DHT22;42288;52.182;21.156;2023-09-18T14:46:46;27.00;92.40
16980;DHT22;42288;52.182;21.156;2023-09-18T14:49:12;26.90;92.30
16980;DHT22;42288;52.182;21.156;2023-09-18T14:51:37;26.90;92.10
16980;DHT22;42288;52.182;21.156;2023-09-18T14:54:03;27.00;92.60
16980;DHT22;42288;52.182;21.156;2023-09-18T14:56:30;27.00;92.70
16980;DHT22;42288;52.182;21.156;2023-09-18T14:58:56;26.90;92.60
16980;DHT22;42288;52.182;21.156;2023-09-18T15:01:23;26.90;92.40
16980;DHT22;42288;52.182;21.156;2023-09-18T15:03:50;26.80;92.40
16980;DHT22;42288;52.182;21.156;2023-09-18T15:06:16;26.80;92.80
16980;DHT22;42288;52.182;21.156;2023-09-18T15:08:42;26.70;92.90
16980;DHT22;42288;52.182;21.156;2023-09-18T15:11:07;26.60;92.70
16980;DHT22;42288;52.182;21.156;2023-09-18T15:13:34;26.60;92.70
16980;DHT22;42288;52.182;21.156;2023-09-18T15:16:01;26.50;93.40
16980;DHT22;42288;52.182;21.156;2023-09-18T15:18:27;26.50;93.50
16980;DHT22;42288;52.182;21.156;2023-09-18T15:20:52;26.50;93.90
16980;DHT22;42288;52.182;21.156;2023-09-18T15:23:22;26.40;94.20
16980;DHT22;42288;52.182;21.156;2023-09-18T15:25:48;26.40;94.40
16980;DHT22;42288;52.182;21.156;2023-09-18T15:28:16;26.40;94.40
16980;DHT22;42288;52.182;21.156;2023-09-18T15:30:43;26.20;94.50
16980;DHT22;42288;52.182;21.156;2023-09-18T15:33:08;26.30;94.70